createdAt,value
2019-02-27T00:03:45.036Z,99.90
2019-02-27T00:07:45.391Z,99.90
2019-02-27T00:11:46.740Z,99.90
2019-02-27T00:15:44.275Z,99.90
2019-02-27T00:19:42.922Z,99.90
2019-02-27T00:23:41.499Z,99.90
2019-02-27T00:27:40.077Z,99.90
2019-02-27T00:31:38.747Z,99.90
2019-02-27T00:35:39.580Z,99.90
2019-02-27T00:39:40.031Z,99.90
2019-02-27T00:43:38.608Z,99.90
2019-02-27T00:47:37.268Z,99.90
2019-02-27T00:51:35.845Z,99.90
2019-02-27T00:55:39.416Z,99.90
2019-02-27T00:59:37.851Z,99.90
2019-02-27T01:03:36.487Z,99.90
2019-02-27T01:07:35.164Z,99.90
2019-02-27T01:11:33.755Z,99.90
2019-02-27T01:15:41.754Z,99.90
2019-02-27T01:19:42.963Z,99.90
2019-02-27T01:23:44.717Z,99.90
2019-02-27T01:27:43.856Z,99.90
2019-02-27T01:31:42.554Z,99.90
2019-02-27T01:35:41.139Z,99.90
2019-02-27T01:39:41.812Z,99.90
2019-02-27T01:43:40.702Z,99.90
2019-02-27T01:47:43.496Z,99.90
2019-02-27T01:51:39.807Z,99.90
2019-02-27T01:55:38.523Z,99.90
2019-02-27T01:59:37.111Z,99.90
2019-02-27T02:03:35.773Z,99.90
2019-02-27T02:07:34.363Z,99.90
2019-02-27T02:11:35.026Z,99.90
2019-02-27T02:15:44.992Z,99.90
2019-02-27T02:20:16.925Z,99.90
2019-02-27T02:24:54.196Z,99.90
2019-02-27T02:29:20.367Z,99.90
2019-02-27T02:33:50.017Z,99.90
2019-02-27T02:38:02.971Z,99.90
2019-02-27T02:42:24.701Z,99.90
2019-02-27T02:46:47.189Z,99.90
2019-02-27T02:51:28.602Z,99.90
2019-02-27T02:55:50.826Z,99.90
2019-02-27T03:00:00.135Z,99.90
2019-02-27T03:04:12.480Z,99.90
2019-02-27T03:08:19.962Z,99.90
2019-02-27T03:13:06.058Z,99.90
2019-02-27T03:17:18.271Z,99.90
2019-02-27T03:21:33.583Z,99.90
2019-02-27T03:25:51.918Z,99.90
2019-02-27T03:34:53.547Z,99.90
2019-02-27T03:39:00.275Z,99.90
2019-02-27T03:43:11.467Z,99.90
2019-02-27T03:47:38.103Z,99.90
2019-02-27T03:52:06.727Z,99.90
2019-02-27T03:56:20.026Z,99.90
2019-02-27T04:00:36.844Z,99.90
2019-02-27T04:04:54.977Z,99.90
2019-02-27T04:08:58.159Z,99.90
2019-02-27T04:13:06.404Z,99.90
2019-02-27T04:17:12.415Z,99.90
2019-02-27T04:21:11.348Z,99.90
2019-02-27T04:25:12.545Z,99.90
2019-02-27T04:29:11.134Z,99.90
2019-02-27T04:33:09.732Z,99.90
2019-02-27T04:37:08.330Z,99.90
2019-02-27T04:41:08.429Z,99.90
2019-02-27T04:45:12.279Z,99.90
2019-02-27T04:49:11.837Z,99.90
2019-02-27T04:53:10.427Z,99.90
2019-02-27T04:57:09.005Z,99.90
2019-02-27T05:01:10.799Z,99.90
2019-02-27T05:05:16.124Z,99.90
2019-02-27T05:09:26.813Z,99.90
2019-02-27T05:13:27.059Z,99.90
2019-02-27T05:17:26.679Z,99.90
2019-02-27T05:21:25.347Z,99.90
2019-02-27T05:25:23.902Z,99.90
2019-02-27T05:29:22.499Z,99.90
2019-02-27T05:33:21.089Z,99.90
2019-02-27T05:37:19.657Z,99.90
2019-02-27T05:41:18.289Z,99.90
2019-02-27T05:45:16.884Z,99.90
2019-02-27T05:49:15.465Z,99.90
2019-02-27T05:53:14.064Z,99.90
2019-02-27T05:57:12.701Z,99.90
2019-02-27T06:01:11.315Z,99.90
2019-02-27T06:05:09.968Z,99.90
2019-02-27T06:09:10.373Z,99.90
2019-02-27T06:13:09.083Z,99.90
2019-02-27T06:17:10.184Z,99.90
2019-02-27T06:21:07.963Z,99.90
2019-02-27T06:25:21.537Z,99.90
2019-02-27T06:29:15.944Z,99.90
2019-02-27T06:33:14.528Z,99.90
2019-02-27T06:37:15.367Z,99.90
2019-02-27T06:41:15.626Z,99.90
2019-02-27T06:45:18.636Z,99.90
2019-02-27T06:49:18.272Z,99.90
2019-02-27T06:53:17.534Z,99.60
2019-02-27T06:57:16.186Z,99.90
2019-02-27T07:01:14.781Z,99.60
2019-02-27T07:05:14.102Z,99.50
2019-02-27T07:09:14.550Z,98.80
2019-02-27T07:13:13.118Z,99.10
2019-02-27T07:17:11.734Z,99.50
2019-02-27T07:21:10.450Z,99.90
2019-02-27T07:25:12.058Z,99.20
2019-02-27T07:29:10.961Z,98.50
2019-02-27T07:33:09.559Z,98.20
2019-02-27T07:37:10.418Z,99.40
2019-02-27T07:41:08.702Z,99.90
2019-02-27T07:45:10.637Z,99.90
2019-02-27T07:49:09.982Z,97.50
2019-02-27T07:53:08.587Z,97.10
2019-02-27T07:57:07.533Z,96.70
2019-02-27T08:01:06.462Z,93.70
2019-02-27T08:05:08.316Z,91.40
2019-02-27T08:09:07.779Z,92.90
2019-02-27T08:13:06.669Z,90.40
2019-02-27T08:17:16.959Z,92.40
2019-02-27T08:21:05.554Z,92.10
2019-02-27T08:25:04.990Z,92.80
2019-02-27T08:29:03.680Z,93.00
2019-02-27T08:33:02.582Z,92.20
2019-02-27T08:37:01.134Z,92.70
2019-02-27T08:41:00.142Z,92.40
2019-02-27T08:45:00.822Z,92.20
2019-02-27T08:49:00.371Z,91.20
2019-02-27T08:52:59.064Z,87.00
2019-02-27T08:56:57.643Z,80.60
2019-02-27T09:00:59.114Z,72.30
2019-02-27T09:04:57.745Z,69.70
2019-02-27T09:08:56.657Z,72.40
2019-02-27T09:13:05.497Z,67.50
2019-02-27T09:16:58.909Z,70.10
2019-02-27T09:20:57.500Z,64.40
2019-02-27T09:24:57.193Z,57.40
2019-02-27T09:28:56.157Z,54.20
2019-02-27T09:32:54.739Z,51.20
2019-02-27T09:36:53.343Z,53.20
2019-02-27T09:40:51.993Z,52.10
2019-02-27T09:44:50.657Z,56.80
2019-02-27T09:48:49.348Z,56.20
2019-02-27T09:52:51.390Z,55.60
2019-02-27T09:56:50.178Z,56.30
2019-02-27T10:00:59.329Z,56.10
2019-02-27T10:04:54.969Z,57.20
2019-02-27T10:08:59.067Z,55.80
2019-02-27T10:12:59.853Z,55.50
2019-02-27T10:16:58.755Z,50.20
2019-02-27T10:20:57.532Z,55.80
2019-02-27T10:24:56.200Z,54.00
2019-02-27T10:28:54.807Z,53.30
2019-02-27T10:32:53.730Z,52.90
2019-02-27T10:36:56.400Z,51.40
2019-02-27T10:40:55.123Z,51.30
2019-02-27T10:44:53.780Z,50.80
2019-02-27T10:48:52.445Z,49.30
2019-02-27T10:52:51.192Z,52.10
2019-02-27T10:56:49.795Z,48.50
2019-02-27T11:00:50.659Z,50.10
2019-02-27T11:04:50.064Z,50.80
2019-02-27T11:08:49.046Z,49.20
2019-02-27T11:12:47.644Z,51.30
2019-02-27T11:16:46.279Z,50.10
2019-02-27T11:20:45.119Z,49.60
2019-02-27T11:24:43.741Z,50.70
2019-02-27T11:28:47.363Z,47.70
2019-02-27T11:32:42.958Z,49.10
2019-02-27T11:36:41.543Z,49.20
2019-02-27T11:40:42.657Z,50.00
2019-02-27T11:44:40.808Z,47.70
2019-02-27T11:48:39.765Z,48.30
2019-02-27T11:52:48.591Z,50.00
2019-02-27T11:56:42.609Z,50.10
2019-02-27T12:00:41.273Z,48.20
2019-02-27T12:04:43.062Z,46.90
2019-02-27T12:08:41.757Z,47.60
2019-02-27T12:12:40.430Z,49.40
2019-02-27T12:16:39.784Z,48.50
2019-02-27T12:20:38.447Z,48.90
2019-02-27T12:24:50.362Z,48.50
2019-02-27T12:28:52.510Z,48.50
2019-02-27T12:32:50.284Z,49.10
2019-02-27T12:36:52.277Z,46.50
2019-02-27T12:40:49.185Z,47.40
2019-02-27T12:44:47.877Z,47.40
2019-02-27T12:48:47.066Z,47.20
2019-02-27T12:52:47.944Z,47.90
2019-02-27T12:56:46.291Z,48.50
2019-02-27T13:00:46.335Z,45.80
2019-02-27T13:04:46.918Z,47.80
2019-02-27T13:08:45.539Z,47.10
2019-02-27T13:12:44.291Z,46.20
2019-02-27T13:16:51.602Z,48.00
2019-02-27T13:20:50.184Z,46.30
2019-02-27T13:24:50.339Z,45.70
2019-02-27T13:28:49.700Z,45.90
2019-02-27T13:32:48.434Z,47.60
2019-02-27T13:36:47.064Z,48.20
2019-02-27T13:40:45.735Z,45.20
2019-02-27T13:44:44.342Z,44.90
2019-02-27T13:48:43.083Z,47.30
2019-02-27T13:52:44.931Z,45.70
2019-02-27T13:56:42.539Z,44.40
2019-02-27T14:00:41.196Z,44.90
2019-02-27T14:04:40.183Z,43.70
2019-02-27T14:08:38.767Z,45.50
2019-02-27T14:16:59.501Z,43.50
2019-02-27T14:20:59.000Z,46.20
2019-02-27T14:24:58.456Z,45.50
2019-02-27T14:28:57.049Z,43.50
2019-02-27T14:32:58.900Z,45.90
2019-02-27T14:36:57.639Z,43.50
2019-02-27T14:40:56.777Z,45.10
2019-02-27T14:44:58.030Z,44.70
2019-02-27T14:48:56.645Z,44.90
2019-02-27T14:52:55.267Z,45.50
2019-02-27T14:56:53.832Z,46.40
2019-02-27T15:00:53.004Z,45.50
2019-02-27T15:04:52.275Z,45.40
2019-02-27T15:08:57.767Z,46.00
2019-02-27T15:12:55.213Z,45.80
2019-02-27T15:16:53.577Z,45.70
2019-02-27T15:25:13.147Z,44.50
2019-02-27T15:29:11.736Z,45.40
2019-02-27T15:33:10.355Z,45.40
2019-02-27T15:37:09.423Z,46.30
2019-02-27T15:41:08.075Z,45.70
2019-02-27T15:45:10.127Z,45.70
2019-02-27T15:49:08.920Z,45.10
2019-02-27T15:53:07.623Z,44.60
2019-02-27T15:57:06.248Z,43.30
2019-02-27T16:01:05.690Z,42.00
2019-02-27T16:05:07.606Z,40.30
2019-02-27T16:09:11.762Z,40.00
2019-02-27T16:13:16.178Z,39.30
2019-02-27T16:17:14.813Z,38.90
2019-02-27T16:21:13.375Z,37.30
2019-02-27T16:25:18.254Z,36.20
2019-02-27T16:29:16.493Z,39.70
2019-02-27T16:33:15.101Z,41.80
2019-02-27T16:37:13.702Z,43.50
2019-02-27T16:41:12.451Z,44.80
2019-02-27T16:45:13.815Z,45.40
2019-02-27T16:49:12.414Z,46.30
2019-02-27T16:53:16.229Z,46.40
2019-02-27T16:57:11.389Z,47.00
2019-02-27T17:01:10.106Z,47.90
2019-02-27T17:05:11.551Z,48.80
2019-02-27T17:09:10.990Z,50.10
2019-02-27T17:13:14.635Z,51.40
2019-02-27T17:17:10.788Z,52.00
2019-02-27T17:21:09.364Z,52.80
2019-02-27T17:25:13.355Z,53.50
2019-02-27T17:29:14.818Z,55.10
2019-02-27T17:33:15.777Z,55.70
2019-02-27T17:37:14.033Z,56.60
2019-02-27T17:41:12.968Z,57.20
2019-02-27T17:45:14.139Z,58.10
2019-02-27T17:49:13.167Z,59.40
2019-02-27T17:53:12.029Z,60.10
2019-02-27T17:57:10.604Z,61.50
2019-02-27T18:01:14.377Z,62.70
2019-02-27T18:05:12.957Z,62.10
2019-02-27T18:09:11.921Z,65.90
2019-02-27T18:13:10.945Z,65.70
2019-02-27T18:17:09.601Z,66.20
2019-02-27T18:21:08.173Z,70.10
2019-02-27T18:25:18.067Z,70.80
2019-02-27T18:29:19.733Z,71.30
2019-02-27T18:33:18.444Z,73.00
2019-02-27T18:37:19.047Z,74.00
2019-02-27T18:41:17.508Z,74.30
2019-02-27T18:45:18.916Z,75.60
2019-02-27T18:49:18.530Z,79.10
2019-02-27T18:53:17.835Z,80.90
2019-02-27T18:57:16.514Z,82.10
2019-02-27T19:01:15.840Z,85.10
2019-02-27T19:05:14.640Z,86.00
2019-02-27T19:09:13.245Z,88.20
2019-02-27T19:13:12.226Z,85.90
2019-02-27T19:17:10.886Z,88.20
2019-02-27T19:21:09.540Z,86.60
2019-02-27T19:25:09.252Z,86.70
2019-02-27T19:29:07.915Z,88.80
2019-02-27T19:33:06.956Z,90.40
2019-02-27T19:37:06.011Z,90.70
2019-02-27T19:41:04.937Z,91.40
2019-02-27T19:45:05.166Z,90.40
2019-02-27T19:49:04.170Z,91.00
2019-02-27T19:53:06.676Z,91.20
2019-02-27T19:57:08.367Z,91.40
2019-02-27T20:01:09.792Z,91.10
2019-02-27T20:05:12.425Z,91.60
2019-02-27T20:09:19.077Z,91.90
2019-02-27T20:13:15.784Z,92.40
2019-02-27T20:17:14.381Z,92.40
2019-02-27T20:21:13.229Z,92.90
2019-02-27T20:25:14.606Z,93.20
2019-02-27T20:29:16.221Z,93.40
2019-02-27T20:33:14.819Z,93.60
2019-02-27T20:37:13.625Z,94.00
2019-02-27T20:41:12.288Z,95.00
2019-02-27T20:45:19.401Z,94.60
2019-02-27T20:49:18.068Z,95.70
2019-02-27T20:53:16.656Z,96.30
2019-02-27T20:57:15.320Z,96.20
2019-02-27T21:01:14.230Z,96.40
2019-02-27T21:05:14.301Z,96.40
2019-02-27T21:09:13.423Z,96.20
2019-02-27T21:13:15.580Z,96.00
2019-02-27T21:17:12.652Z,95.80
2019-02-27T21:21:11.708Z,95.90
2019-02-27T21:25:15.033Z,96.30
2019-02-27T21:29:13.045Z,96.50
2019-02-27T21:33:12.020Z,96.40
2019-02-27T21:37:10.753Z,96.70
2019-02-27T21:41:13.214Z,96.60
2019-02-27T21:45:22.608Z,96.80
2019-02-27T21:49:21.221Z,97.30
2019-02-27T21:53:20.585Z,97.30
2019-02-27T21:57:19.252Z,97.40
2019-02-27T22:01:19.347Z,98.30
2019-02-27T22:05:19.775Z,98.40
2019-02-27T22:09:18.797Z,98.70
2019-02-27T22:13:28.606Z,98.90
2019-02-27T22:17:17.774Z,99.40
2019-02-27T22:21:16.345Z,99.40
2019-02-27T22:25:17.138Z,99.90
2019-02-27T22:29:15.705Z,99.90
2019-02-27T22:33:14.276Z,99.90
2019-02-27T22:37:17.522Z,99.90
2019-02-27T22:41:17.242Z,99.90
2019-02-27T22:45:19.938Z,99.90
2019-02-27T22:49:18.582Z,99.90
2019-02-27T22:53:17.183Z,99.90
2019-02-27T22:57:15.775Z,99.90
2019-02-27T23:01:19.197Z,99.90
2019-02-27T23:05:18.353Z,99.90
2019-02-27T23:09:20.016Z,99.90
2019-02-27T23:13:24.593Z,99.90
2019-02-27T23:17:23.179Z,99.90
2019-02-27T23:21:21.861Z,99.90
2019-02-27T23:25:20.406Z,99.90
2019-02-27T23:29:19.013Z,99.90
2019-02-27T23:33:17.667Z,99.90
2019-02-27T23:37:18.092Z,99.90
2019-02-27T23:41:16.730Z,99.90
2019-02-27T23:45:15.309Z,99.90
2019-02-27T23:49:13.867Z,99.90
2019-02-27T23:53:12.445Z,99.90
2019-02-27T23:57:11.013Z,99.90
